Time;durP1;ratioP1;P1;durP2;ratioP2;P2;SDS_P1;SDS_P2;PMS_P1;PMS_P2;Temp;Humidity;BMP_temperature;BMP_pressure;BME280_temperature;BME280_humidity;BME280_pressure;Samples;Min_cycle;Max_cycle;Signal;HPM_P1;HPM_P2
2022/10/08 00:00:45;;;;;;;4.17;2.47;;;;;;;10.86;100.00;100754.56;1710923;82;21524;-60
2022/10/08 00:03:14;;;;;;;4.20;2.42;;;;;;;10.88;100.00;100752.75;1701242;82;21606;-60
2022/10/08 00:05:42;;;;;;;3.50;2.70;;;;;;;10.90;100.00;100746.14;1704847;82;21471;-60
2022/10/08 00:08:09;;;;;;;3.58;2.52;;;;;;;10.90;100.00;100745.68;1707486;81;21787;-60
2022/10/08 00:10:36;;;;;;;6.30;2.95;;;;;;;10.86;100.00;100745.36;1704137;82;21506;-60
2022/10/08 00:13:04;;;;;;;4.25;2.85;;;;;;;10.95;100.00;100740.31;1703479;82;21583;-60
2022/10/08 00:15:35;;;;;;;5.33;2.70;;;;;;;10.94;100.00;100741.66;1700619;83;21460;-60
2022/10/08 00:18:03;;;;;;;4.70;2.60;;;;;;;10.83;100.00;100736.68;1701721;82;21120;-57
2022/10/08 00:20:29;;;;;;;6.08;3.20;;;;;;;10.81;100.00;100736.74;1703250;82;21767;-58
2022/10/08 00:22:56;;;;;;;4.00;2.42;;;;;;;10.79;100.00;100732.41;1702939;82;21602;-58
2022/10/08 00:25:23;;;;;;;5.37;2.70;;;;;;;10.73;100.00;100736.06;1699634;82;21523;-57
2022/10/08 00:27:50;;;;;;;3.67;2.58;;;;;;;10.72;100.00;100731.72;1705229;82;21641;-57
2022/10/08 00:30:17;;;;;;;3.65;2.17;;;;;;;10.75;100.00;100729.45;1706047;82;21542;-57
2022/10/08 00:32:44;;;;;;;3.83;2.30;;;;;;;10.74;100.00;100726.39;1705089;82;21825;-57
2022/10/08 00:35:12;;;;;;;4.75;2.75;;;;;;;10.74;100.00;100723.34;1703347;82;21496;-59
2022/10/08 00:37:39;;;;;;;9.28;3.05;;;;;;;10.74;100.00;100719.82;1707347;82;21523;-59
2022/10/08 00:40:06;;;;;;;6.17;2.62;;;;;;;10.77;100.00;100715.80;1707452;82;21014;-59
2022/10/08 00:42:33;;;;;;;4.53;2.90;;;;;;;10.78;100.00;100713.59;1703723;82;26955;-58
2022/10/08 00:45:00;;;;;;;6.58;3.27;;;;;;;10.81;100.00;100713.50;1703850;82;21861;-58
2022/10/08 00:47:45;;;;;;;6.22;2.95;;;;;;;10.82;100.00;100704.25;1701658;82;21570;-59
2022/10/08 00:50:23;;;;;;;5.50;3.35;;;;;;;10.80;100.00;100696.00;1701514;83;21578;-59
2022/10/08 00:52:54;;;;;;;5.12;3.42;;;;;;;10.78;100.00;100697.81;1701241;82;21476;-59
2022/10/08 00:55:22;;;;;;;6.70;3.27;;;;;;;10.75;100.00;100697.42;1701760;82;21464;-59
2022/10/08 00:57:49;;;;;;;;;;;;;;;10.72;100.00;100693.58;1709573;82;21880;-59
2022/10/08 01:00:23;;;;;;;6.42;3.30;;;;;;;10.65;100.00;100690.70;1700227;82;20425;-59
2022/10/08 01:02:51;;;;;;;5.87;3.37;;;;;;;10.62;100.00;100690.77;1701769;82;21475;-60
2022/10/08 01:05:25;;;;;;;5.95;3.75;;;;;;;10.60;100.00;100682.05;1695705;82;21013;-60
2022/10/08 01:08:26;;;;;;;4.00;3.52;;;;;;;10.63;100.00;100691.19;1702261;82;21514;-58
2022/10/08 01:11:11;;;;;;;6.80;3.67;;;;;;;10.63;100.00;100680.67;1694716;82;21680;-58
2022/10/08 01:13:46;;;;;;;6.90;3.37;;;;;;;10.59;100.00;100686.46;1703686;82;21425;-58
2022/10/08 01:16:28;;;;;;;5.40;3.58;;;;;;;10.54;100.00;100682.23;1706156;82;21542;-58
2022/10/08 01:19:33;;;;;;;4.62;3.58;;;;;;;10.48;100.00;100683.25;1705155;82;21510;-60
2022/10/08 01:22:21;;;;;;;6.92;3.77;;;;;;;10.41;100.00;100684.30;1705074;82;21508;-58
2022/10/08 01:27:40;;;;;;;5.22;3.25;;;;;;;10.40;100.00;100683.91;1704131;82;20417;-57
2022/10/08 01:30:13;;;;;;;7.40;4.20;;;;;;;10.31;100.00;100686.30;1690442;83;21497;-59
2022/10/08 01:32:55;;;;;;;4.70;3.77;;;;;;;10.28;100.00;100682.39;1699845;82;21516;-58
2022/10/08 01:35:27;;;;;;;6.58;4.12;;;;;;;10.32;100.00;100677.50;1695467;82;21423;-58
2022/10/08 01:37:54;;;;;;;6.78;4.22;;;;;;;10.34;100.00;100674.41;1711742;82;21991;-58
2022/10/08 01:40:26;;;;;;;6.33;4.55;;;;;;;10.32;100.00;100669.61;1703781;82;21506;-58
2022/10/08 01:42:54;;;;;;;6.47;4.08;;;;;;;10.32;100.00;100677.08;1701924;82;21558;-58
2022/10/08 01:45:25;;;;;;;11.00;4.45;;;;;;;10.33;100.00;100673.98;1708223;82;25988;-58
2022/10/08 01:47:52;;;;;;;4.92;3.83;;;;;;;10.35;100.00;100673.95;1702392;82;21612;-59
2022/10/08 01:50:27;;;;;;;7.70;4.20;;;;;;;10.31;100.00;100676.64;1663118;85;21793;-58
2022/10/08 01:53:01;;;;;;;8.38;4.25;;;;;;;10.30;100.00;100681.51;1702809;82;21554;-58
2022/10/08 01:55:35;;;;;;;5.87;4.17;;;;;;;10.29;100.00;100684.14;1703174;82;21475;-58
2022/10/08 01:58:06;;;;;;;4.67;3.80;;;;;;;10.36;100.00;100679.17;1699435;82;21595;-59
2022/10/08 02:00:33;;;;;;;7.37;4.05;;;;;;;10.34;100.00;100687.55;1706864;82;21543;-58
2022/10/08 02:03:00;;;;;;;11.70;4.20;;;;;;;10.30;100.00;100687.16;1703757;82;21866;-58
2022/10/08 02:05:29;;;;;;;10.68;4.47;;;;;;;10.28;100.00;100683.28;1706492;82;21487;-58
2022/10/08 02:07:56;;;;;;;8.00;5.00;;;;;;;10.27;100.00;100682.86;1709922;82;21608;-59
2022/10/08 02:10:24;;;;;;;9.18;4.72;;;;;;;10.28;100.00;100683.70;1703305;82;21622;-58
2022/10/08 02:12:51;;;;;;;9.23;5.03;;;;;;;10.25;100.00;100682.03;1710297;82;21054;-59
2022/10/08 02:15:21;;;;;;;6.45;4.22;;;;;;;10.23;100.00;100689.09;1708181;83;22104;-59
2022/10/08 02:18:10;;;;;;;11.63;4.58;;;;;;;10.24;100.00;100685.55;1714494;80;21530;-59
2022/10/08 02:20:57;;;;;;;6.65;4.30;;;;;;;10.23;100.00;100690.87;1714348;82;20942;-60
2022/10/08 02:23:38;;;;;;;9.60;4.97;;;;;;;10.22;100.00;100686.04;1712996;82;28411;-58
2022/10/08 02:26:09;;;;;;;5.75;4.47;;;;;;;10.19;100.00;100684.82;1711552;82;21407;-58
2022/10/08 02:28:51;;;;;;;10.32;4.20;;;;;;;10.18;100.00;100694.05;1702758;82;21667;-59
2022/10/08 02:31:36;;;;;;;8.13;5.22;;;;;;;10.17;100.00;100690.56;1708778;83;21605;-59
2022/10/08 02:34:17;;;;;;;5.95;4.47;;;;;;;10.12;100.00;100689.81;1710240;82;21470;-58
2022/10/08 02:36:48;;;;;;;7.62;5.00;;;;;;;10.08;100.00;100690.33;1709408;82;21053;-58
2022/10/08 02:39:15;;;;;;;7.95;5.28;;;;;;;10.03;100.00;100690.87;1712964;82;21050;-58
2022/10/08 02:41:51;;;;;;;7.15;4.65;;;;;;;10.06;100.00;100689.97;1712349;82;21491;-59
2022/10/08 02:44:38;;;;;;;6.05;4.97;;;;;;;10.03;100.00;100689.56;1707076;82;21483;-58
2022/10/08 02:47:08;;;;;;;7.27;4.87;;;;;;;10.04;100.00;100687.36;1710919;82;21614;-58
2022/10/08 02:49:39;;;;;;;8.75;5.47;;;;;;;10.02;100.00;100685.66;1710139;81;21519;-59
2022/10/08 02:52:06;;;;;;;7.53;4.85;;;;;;;10.02;100.00;100689.17;1714675;81;21601;-58
2022/10/08 02:54:36;;;;;;;5.75;4.50;;;;;;;9.99;100.00;100691.00;1682399;82;21844;-59
2022/10/08 02:57:14;;;;;;;8.93;4.85;;;;;;;10.00;100.00;100690.97;1713219;82;21562;-58
2022/10/08 02:59:41;;;;;;;;;;;;;;;10.01;100.00;100692.69;1707107;82;21440;-58
2022/10/08 03:02:07;;;;;;;6.17;4.33;;;;;;;9.90;100.00;100693.38;1714757;82;20429;-58
2022/10/08 03:04:53;;;;;;;9.15;4.95;;;;;;;9.90;100.00;100690.30;1717300;81;21530;-58
2022/10/08 03:07:21;;;;;;;6.47;4.58;;;;;;;9.92;100.00;100690.27;1715072;82;22072;-58
2022/10/08 03:09:48;;;;;;;;;;;;;;;9.89;100.00;100691.22;1711102;82;21435;-59
2022/10/08 03:12:15;;;;;;;6.85;4.40;;;;;;;9.85;100.00;100689.99;1714051;81;20202;-59
2022/10/08 03:14:45;;;;;;;7.20;4.87;;;;;;;9.88;100.00;100690.79;1717897;81;21507;-58
2022/10/08 03:17:14;;;;;;;11.15;4.42;;;;;;;9.88;100.00;100690.79;1717810;81;21096;-58
2022/10/08 03:19:41;;;;;;;10.20;5.65;;;;;;;9.88;100.00;100689.94;1721028;81;21839;-58
2022/10/08 03:22:08;;;;;;;6.62;4.90;;;;;;;9.88;100.00;100689.94;1723723;81;21518;-58
2022/10/08 03:24:35;;;;;;;5.72;5.00;;;;;;;9.92;100.00;100692.89;1716788;81;21482;-60
2022/10/08 03:27:02;;;;;;;8.43;5.35;;;;;;;9.93;100.00;100688.07;1718859;81;21487;-58
2022/10/08 03:29:29;;;;;;;6.85;4.97;;;;;;;9.93;100.00;100687.61;1722319;81;21609;-58
2022/10/08 03:31:55;;;;;;;8.05;4.85;;;;;;;9.94;100.00;100687.16;1721251;80;22035;-58
2022/10/08 03:34:24;;;;;;;5.47;4.70;;;;;;;9.95;100.00;100688.90;1717510;81;21478;-58
2022/10/08 03:36:51;;;;;;;7.45;4.47;;;;;;;9.99;100.00;100687.92;1721678;81;21428;-58
2022/10/08 03:39:17;;;;;;;5.80;4.12;;;;;;;9.94;100.00;100677.53;1717759;81;21486;-58
2022/10/08 03:41:44;;;;;;;4.97;4.35;;;;;;;9.98;100.00;100681.37;1722398;81;21458;-59
2022/10/08 03:44:11;;;;;;;7.75;4.37;;;;;;;9.97;100.00;100687.09;1715241;81;21833;-59
2022/10/08 03:46:37;;;;;;;6.83;4.85;;;;;;;9.97;100.00;100683.16;1713288;81;21521;-58
2022/10/08 03:49:04;;;;;;;8.40;4.40;;;;;;;9.93;100.00;100682.81;1719667;81;21546;-58
2022/10/08 03:51:31;;;;;;;8.93;4.65;;;;;;;9.94;100.00;100681.47;1715247;81;20993;-58
2022/10/08 03:53:58;;;;;;;5.37;4.47;;;;;;;9.93;100.00;100683.67;1728489;81;21606;-59
2022/10/08 03:56:25;;;;;;;7.90;5.25;;;;;;;9.90;100.00;100684.19;1718162;81;21856;-60
2022/10/08 03:58:58;;;;;;;8.73;4.92;;;;;;;9.92;100.00;100686.33;1722918;81;20986;-59
2022/10/08 04:01:26;;;;;;;5.42;4.42;;;;;;;9.95;100.00;100687.58;1716367;81;21596;-60
2022/10/08 04:03:52;;;;;;;10.75;4.80;;;;;;;9.93;100.00;100684.13;1719416;81;21057;-60
2022/10/08 04:06:20;;;;;;;10.30;4.85;;;;;;;9.92;100.00;100679.77;1717059;81;21554;-60
2022/10/08 04:08:48;;;;;;;6.75;3.67;;;;;;;9.92;100.00;100685.02;1718916;81;21422;-59
2022/10/08 04:11:16;;;;;;;5.70;4.10;;;;;;;9.95;100.00;100684.95;1716475;81;21706;-59
2022/10/08 04:13:43;;;;;;;5.60;4.05;;;;;;;9.93;100.00;100685.44;1704222;82;21676;-61
2022/10/08 04:16:16;;;;;;;7.45;4.20;;;;;;;9.92;100.00;100682.39;1703019;82;21550;-59
2022/10/08 04:18:43;;;;;;;6.08;3.85;;;;;;;9.92;100.00;100678.45;1707625;82;21617;-59
2022/10/08 04:21:13;;;;;;;5.20;4.15;;;;;;;9.93;100.00;100684.13;1699469;82;21774;-59
2022/10/08 04:25:18;;;;;;;5.30;3.98;;;;;;;9.55;100.00;100688.04;1783801;78;23143;-59
2022/10/08 04:27:48;;;;;;;6.53;4.60;;;;;;;10.06;100.00;100688.66;1736368;81;21506;-60
2022/10/08 04:30:14;;;;;;;5.67;4.17;;;;;;;10.06;100.00;100688.19;1735396;80;21817;-60
2022/10/08 04:32:41;;;;;;;10.70;4.55;;;;;;;10.11;100.00;100679.75;1745036;80;20919;-59
2022/10/08 04:35:08;;;;;;;4.40;3.87;;;;;;;10.14;100.00;100679.66;1742032;80;21440;-59
2022/10/08 04:37:35;;;;;;;5.75;3.83;;;;;;;10.18;100.00;100680.91;1739369;81;21542;-59
2022/10/08 04:40:01;;;;;;;5.95;3.75;;;;;;;10.19;100.00;100676.05;1725029;81;21511;-60
2022/10/08 04:42:29;;;;;;;8.00;4.67;;;;;;;10.20;100.00;100671.22;1731867;80;21965;-60
2022/10/08 04:44:55;;;;;;;8.38;3.92;;;;;;;10.20;100.00;100681.27;1730641;80;21420;-59
2022/10/08 04:47:22;;;;;;;6.12;3.52;;;;;;;10.23;100.00;100676.41;1724838;81;21499;-59
2022/10/08 04:49:48;;;;;;;12.18;4.40;;;;;;;10.29;100.00;100680.19;1738088;80;21622;-60
2022/10/08 04:52:17;;;;;;;6.37;3.37;;;;;;;10.33;100.00;100682.72;1704881;81;21048;-60
2022/10/08 04:54:44;;;;;;;9.38;4.10;;;;;;;10.35;100.00;100685.32;1675696;83;22002;-60
2022/10/08 04:57:12;;;;;;;4.72;3.35;;;;;;;10.37;100.00;100682.20;1688713;83;21105;-60
2022/10/08 04:59:40;;;;;;;9.90;4.42;;;;;;;10.40;100.00;100687.39;1684392;83;21530;-59
2022/10/08 05:02:06;;;;;;;6.03;3.52;;;;;;;10.47;100.00;100684.14;1687200;83;21510;-59
2022/10/08 05:04:33;;;;;;;6.97;3.40;;;;;;;10.53;100.00;100689.26;1688666;82;21582;-60
2022/10/08 05:07:00;;;;;;;5.50;3.30;;;;;;;10.60;100.00;100686.85;1675748;83;21726;-60
2022/10/08 05:09:27;;;;;;;4.62;3.37;;;;;;;10.66;100.00;100694.61;1663893;83;20967;-59
2022/10/08 05:11:53;;;;;;;6.72;3.52;;;;;;;10.74;100.00;100692.20;1689640;83;21516;-60
2022/10/08 05:14:20;;;;;;;5.55;3.12;;;;;;;10.86;100.00;100691.42;1688513;83;21586;-60
2022/10/08 05:16:48;;;;;;;6.35;3.35;;;;;;;10.87;100.00;100685.27;1685331;82;21509;-60
2022/10/08 05:19:14;;;;;;;5.40;3.90;;;;;;;10.88;100.00;100694.02;1690149;83;21954;-60
2022/10/08 05:21:41;;;;;;;4.45;3.55;;;;;;;10.89;100.00;100690.03;1692068;83;21470;-61
2022/10/08 05:24:08;;;;;;;10.28;4.87;;;;;;;10.94;100.00;100690.35;1677813;83;21499;-61
2022/10/08 05:26:37;;;;;;;5.70;4.25;;;;;;;10.97;100.00;100691.59;1663099;83;21526;-62
2022/10/08 05:29:04;;;;;;;9.00;4.70;;;;;;;11.00;100.00;100688.86;1727976;80;21538;-61
2022/10/08 05:31:34;;;;;;;10.28;4.72;;;;;;;11.06;100.00;100690.03;1717548;80;21440;-64
2022/10/08 05:34:00;;;;;;;7.10;4.33;;;;;;;11.15;100.00;100683.63;1737186;80;21475;-63
2022/10/08 05:36:31;;;;;;;6.67;4.35;;;;;;;11.18;100.00;100684.40;1718203;80;21575;-63
2022/10/08 05:39:01;;;;;;;8.63;4.58;;;;;;;11.25;100.00;100689.91;1724127;80;21472;-65
2022/10/08 05:41:31;;;;;;;4.78;4.30;;;;;;;11.33;100.00;100692.31;1724766;80;21463;-62
2022/10/08 05:43:58;;;;;;;6.67;4.53;;;;;;;11.44;100.00;100686.73;1720938;80;21745;-64
2022/10/08 05:46:26;;;;;;;10.68;6.33;;;;;;;11.54;100.00;100692.12;1721656;81;21017;-62
2022/10/08 05:48:56;;;;;;;;;;;;;;;11.62;100.00;100690.56;1732991;80;21542;-63
2022/10/08 05:51:23;;;;;;;9.30;6.37;;;;;;;11.71;100.00;100687.66;1725580;80;20435;-63
2022/10/08 05:53:55;;;;;;;13.93;8.60;;;;;;;11.77;100.00;100683.97;1725624;80;21471;-63
2022/10/08 05:56:23;;;;;;;10.72;6.92;;;;;;;11.93;100.00;100686.57;1724963;80;21900;-63
2022/10/08 05:58:49;;;;;;;14.00;6.33;;;;;;;12.12;100.00;100683.34;1733252;80;21467;-63
2022/10/08 06:01:21;;;;;;;14.33;5.90;;;;;;;12.22;100.00;100683.00;1716804;82;21540;-62
2022/10/08 06:03:52;;;;;;;11.43;6.42;;;;;;;12.36;100.00;100685.17;1729084;81;22219;-63
2022/10/08 06:06:20;;;;;;;14.90;6.08;;;;;;;12.54;100.00;100681.03;1719535;81;21612;-63
2022/10/08 06:08:46;;;;;;;11.53;6.00;;;;;;;12.67;100.00;100677.52;1723907;82;22094;-66
2022/10/08 06:11:14;;;;;;;12.55;5.30;;;;;;;12.72;100.00;100680.86;1727687;81;21602;-63
2022/10/08 06:13:40;;;;;;;6.25;4.12;;;;;;;12.77;100.00;100677.61;1724892;81;21543;-63
2022/10/08 06:16:08;;;;;;;6.15;4.35;;;;;;;12.87;100.00;100674.64;1730445;80;21510;-64
2022/10/08 06:18:39;;;;;;;8.20;4.40;;;;;;;12.95;100.00;100677.39;1729748;80;21600;-64
2022/10/08 06:21:11;;;;;;;6.62;4.42;;;;;;;13.08;100.00;100675.17;1719396;81;21838;-64
2022/10/08 06:23:39;;;;;;;8.05;4.28;;;;;;;13.17;100.00;100669.55;1727702;80;21007;-63
2022/10/08 06:26:08;;;;;;;5.65;3.90;;;;;;;13.31;100.00;100669.06;1726925;80;21515;-63
2022/10/08 06:28:37;;;;;;;8.18;4.17;;;;;;;13.39;100.00;100674.05;1741839;80;21404;-62
2022/10/08 06:31:04;;;;;;;7.62;3.98;;;;;;;13.41;100.00;100666.48;1733828;81;21582;-63
2022/10/08 06:33:32;;;;;;;7.45;4.03;;;;;;;13.51;100.00;100663.49;1738949;80;21755;-63
2022/10/08 06:36:05;;;;;;;6.47;4.40;;;;;;;13.55;100.00;100660.66;1729850;81;21527;-63
2022/10/08 06:38:32;;;;;;;7.90;4.12;;;;;;;13.64;100.00;100659.45;1742633;81;20986;-63
2022/10/08 06:41:00;;;;;;;7.22;4.83;;;;;;;13.67;100.00;100654.48;1735221;80;21620;-64
2022/10/08 06:43:27;;;;;;;13.15;6.83;;;;;;;13.78;100.00;100654.92;1732980;81;21539;-63
2022/10/08 06:45:55;;;;;;;39.98;16.02;;;;;;;13.88;100.00;100653.65;1739235;81;21886;-64
2022/10/08 06:48:22;;;;;;;;;;;;;;;13.99;100.00;100655.39;1733949;80;21053;-64
2022/10/08 06:51:02;;;;;;;25.27;10.30;;;;;;;14.12;100.00;100654.41;1739051;80;20417;-65
2022/10/08 06:53:29;;;;;;;11.25;6.12;;;;;;;14.22;100.00;100649.59;1737387;80;21021;-64
2022/10/08 06:56:01;;;;;;;18.75;7.03;;;;;;;14.33;100.00;100648.67;1739125;80;21617;-64
2022/10/08 06:58:29;;;;;;;22.82;9.03;;;;;;;14.49;100.00;100648.05;1746155;80;21645;-64
2022/10/08 07:01:06;;;;;;;40.92;13.88;;;;;;;14.62;100.00;100649.26;1745550;80;21017;-66
2022/10/08 07:03:34;;;;;;;33.67;12.33;;;;;;;14.75;100.00;100648.27;1741049;80;21503;-66
2022/10/08 07:06:03;;;;;;;19.65;8.23;;;;;;;14.89;100.00;100641.88;1729702;81;22036;-66
2022/10/08 07:08:30;;;;;;;14.70;7.40;;;;;;;15.05;100.00;100635.88;1734175;80;21539;-66
2022/10/08 07:11:07;;;;;;;14.18;6.03;;;;;;;15.16;100.00;100634.48;1728495;81;22026;-65
2022/10/08 07:13:34;;;;;;;20.17;9.65;;;;;;;15.26;100.00;100634.05;1729268;81;21423;-67
2022/10/08 07:16:04;;;;;;;12.80;7.70;;;;;;;15.42;100.00;100628.88;1734306;80;21573;-64
2022/10/08 07:18:31;;;;;;;8.08;5.78;;;;;;;15.53;100.00;100622.61;1729839;81;21513;-64
2022/10/08 07:20:58;;;;;;;7.03;3.92;;;;;;;15.66;100.00;100621.55;1731071;80;21692;-64
2022/10/08 07:23:25;;;;;;;6.30;3.20;;;;;;;15.82;100.00;100614.58;1742876;81;21875;-65
2022/10/08 07:26:00;;;;;;;3.15;2.50;;;;;;;15.98;100.00;100612.05;1718147;81;20958;-65
2022/10/08 07:28:29;;;;;;;4.78;2.45;;;;;;;16.13;100.00;100607.77;1711845;81;20987;-66
2022/10/08 07:30:55;;;;;;;7.37;2.92;;;;;;;16.18;100.00;100607.08;1718916;81;21483;-65
2022/10/08 07:33:22;;;;;;;2.60;1.70;;;;;;;16.28;100.00;100606.98;1715083;82;21508;-65
2022/10/08 07:35:49;;;;;;;5.00;1.95;;;;;;;16.40;100.00;100603.31;1719275;81;21511;-66
2022/10/08 07:38:18;;;;;;;4.17;2.17;;;;;;;16.50;100.00;100598.78;1726558;81;21523;-66
2022/10/08 07:40:50;;;;;;;2.62;1.70;;;;;;;16.59;100.00;100598.73;1721750;81;21026;-67
2022/10/08 07:43:16;;;;;;;3.50;2.12;;;;;;;16.73;100.00;100596.22;1714361;82;21585;-68
2022/10/08 07:45:44;;;;;;;5.17;1.87;;;;;;;16.81;100.00;100595.81;1711434;81;21539;-68
2022/10/08 07:48:11;;;;;;;3.90;2.10;;;;;;;16.88;100.00;100597.72;1714411;82;21886;-65
2022/10/08 07:50:39;;;;;;;2.52;1.80;;;;;;;16.97;100.00;100592.36;1717273;81;21089;-69
2022/10/08 07:53:05;;;;;;;2.08;1.55;;;;;;;17.07;100.00;100585.14;1715500;81;21531;-66
2022/10/08 07:55:32;;;;;;;5.92;1.85;;;;;;;17.19;100.00;100586.25;1721249;82;21578;-67
2022/10/08 07:57:59;;;;;;;4.05;1.85;;;;;;;17.31;100.00;100585.58;1711048;81;21519;-67
2022/10/08 08:00:25;;;;;;;3.47;1.80;;;;;;;17.43;100.00;100577.86;1716042;82;21727;-66
2022/10/08 08:02:52;;;;;;;3.03;2.20;;;;;;;17.51;100.00;100577.80;1701096;82;21492;-67
2022/10/08 08:05:19;;;;;;;5.08;1.90;;;;;;;17.60;100.00;100579.56;1721326;81;21085;-67
2022/10/08 08:07:45;;;;;;;4.33;1.95;;;;;;;17.70;100.00;100569.61;1713730;81;20986;-66
2022/10/08 08:10:13;;;;;;;4.85;1.77;;;;;;;17.80;100.00;100565.97;1723538;81;21519;-65
2022/10/08 08:12:40;;;;;;;;;;;;;;;17.95;97.52;100564.70;1730110;80;21844;-65
2022/10/08 08:15:09;;;;;;;4.45;1.60;;;;;;;18.00;88.04;100563.97;1723727;81;20500;-65
2022/10/08 08:17:37;;;;;;;4.55;1.72;;;;;;;18.03;95.41;100558.48;1715206;81;21602;-65
2022/10/08 08:20:04;;;;;;;3.70;1.72;;;;;;;18.18;94.20;100560.22;1689516;83;21621;-66
2022/10/08 08:22:31;;;;;;;5.45;2.62;;;;;;;18.31;92.63;100556.80;1719879;81;21476;-65
2022/10/08 08:24:58;;;;;;;6.20;2.80;;;;;;;18.34;90.14;100549.97;1708653;82;21857;-66
2022/10/08 08:27:24;;;;;;;3.60;1.80;;;;;;;18.39;89.40;100558.55;1716185;81;21105;-68
2022/10/08 08:29:51;;;;;;;3.95;1.80;;;;;;;18.42;87.81;100551.22;1721901;81;21558;-65
2022/10/08 08:32:18;;;;;;;10.63;2.00;;;;;;;18.43;88.22;100551.59;1718001;82;21581;-67
2022/10/08 08:34:45;;;;;;;6.47;2.00;;;;;;;18.49;87.25;100548.54;1713039;81;21495;-67
2022/10/08 08:37:12;;;;;;;2.65;1.50;;;;;;;18.57;86.07;100547.22;1723048;81;21769;-68
2022/10/08 08:39:40;;;;;;;3.22;1.45;;;;;;;18.60;84.47;100547.89;1719443;81;21597;-67
2022/10/08 08:42:33;;;;;;;2.80;1.47;;;;;;;18.65;84.22;100543.14;1714250;81;21732;-69
2022/10/08 08:45:04;;;;;;;5.03;1.87;;;;;;;18.67;83.72;100543.90;1715594;81;21510;-68
2022/10/08 08:47:40;;;;;;;2.65;1.70;;;;;;;18.71;82.64;100545.90;1716649;81;21423;-69
2022/10/08 08:50:26;;;;;;;5.97;1.62;;;;;;;18.77;82.29;100539.33;1719652;81;21866;-68
2022/10/08 08:52:54;;;;;;;2.85;1.27;;;;;;;18.89;81.84;100534.58;1727887;80;21582;-69
2022/10/08 08:55:27;;;;;;;2.60;1.42;;;;;;;18.98;81.39;100531.33;1729328;79;21575;-69
2022/10/08 08:58:04;;;;;;;3.55;1.20;;;;;;;19.05;80.37;100530.47;1724567;80;21633;-66
2022/10/08 09:00:37;;;;;;;4.10;1.70;;;;;;;19.08;80.07;100519.63;1713702;81;21594;-69
2022/10/08 09:03:21;;;;;;;2.47;1.35;;;;;;;19.09;80.08;100516.48;1723735;80;21551;-68
2022/10/08 09:05:53;;;;;;;2.72;1.50;;;;;;;19.12;79.98;100517.59;1718668;82;21022;-68
2022/10/08 09:08:36;;;;;;;4.08;1.77;;;;;;;19.18;78.98;100511.40;1729870;80;21570;-68
2022/10/08 09:11:04;;;;;;;2.75;1.30;;;;;;;19.28;78.25;100508.98;1722813;81;21594;-65
2022/10/08 09:13:55;;;;;;;1.67;1.55;;;;;;;19.42;76.56;100514.73;1719896;81;26466;-65
2022/10/08 09:16:26;;;;;;;4.33;1.50;;;;;;;19.55;76.10;100506.32;1723988;81;21476;-66
2022/10/08 09:18:54;;;;;;;4.42;1.45;;;;;;;19.65;74.70;100494.55;1725493;81;21507;-68
2022/10/08 09:21:22;;;;;;;2.77;1.35;;;;;;;19.72;74.67;100497.22;1722903;81;21507;-68
2022/10/08 09:23:49;;;;;;;4.15;2.15;;;;;;;19.86;73.77;100489.60;1711780;81;20967;-69
2022/10/08 09:26:26;;;;;;;3.87;2.42;;;;;;;19.95;73.43;100487.64;1721184;80;21408;-69
2022/10/08 09:28:55;;;;;;;6.33;3.67;;;;;;;20.00;72.44;100486.85;1742594;80;21772;-66
2022/10/08 09:31:31;;;;;;;4.97;2.80;;;;;;;20.05;72.95;100486.52;1730229;81;21578;-68
2022/10/08 09:34:14;;;;;;;4.17;2.15;;;;;;;20.06;72.33;100478.02;1724046;80;21501;-65
2022/10/08 09:36:52;;;;;;;4.33;1.80;;;;;;;20.14;72.25;100479.21;1736649;80;21491;-67
2022/10/08 09:39:27;;;;;;;3.05;1.70;;;;;;;20.25;70.67;100479.81;1726649;81;21573;-67
2022/10/08 09:42:18;;;;;;;3.50;1.72;;;;;;;20.31;70.00;100472.70;1729734;80;21729;-67
2022/10/08 09:44:51;;;;;;;2.90;1.25;;;;;;;20.35;70.36;100472.00;1730729;81;21570;-65
2022/10/08 09:47:20;;;;;;;2.90;1.50;;;;;;;20.38;67.25;100471.30;1742573;80;21419;-67
2022/10/08 09:50:14;;;;;;;1.37;1.15;;;;;;;20.38;66.46;100464.63;1733157;80;21692;-66
2022/10/08 09:52:41;;;;;;;2.92;1.20;;;;;;;20.44;64.77;100456.66;1726380;81;20979;-66
2022/10/08 09:55:13;;;;;;;3.17;1.00;;;;;;;20.51;62.97;100456.60;1740269;81;22107;-67
2022/10/08 09:57:50;;;;;;;3.05;1.55;;;;;;;20.57;61.29;100453.48;1732102;80;21461;-66
2022/10/08 10:00:35;;;;;;;1.92;1.47;;;;;;;20.59;61.02;100448.88;1735493;81;21581;-66
2022/10/08 10:03:05;;;;;;;1.42;1.27;;;;;;;20.58;61.21;100443.64;1738323;80;21426;-65
2022/10/08 10:05:34;;;;;;;2.67;1.35;;;;;;;20.64;60.54;100436.55;1730703;80;21448;-66
2022/10/08 10:08:01;;;;;;;2.15;1.27;;;;;;;20.72;59.75;100428.84;1740919;81;21841;-67
2022/10/08 10:10:43;;;;;;;1.70;1.20;;;;;;;20.82;60.13;100420.16;1744716;80;21569;-66
2022/10/08 10:13:29;;;;;;;1.95;1.32;;;;;;;20.90;58.51;100418.61;1728905;80;21601;-66
2022/10/08 10:16:10;;;;;;;2.05;1.02;;;;;;;20.92;58.48;100415.83;1708913;81;21440;-67
2022/10/08 10:19:00;;;;;;;2.15;1.07;;;;;;;21.00;57.84;100416.10;1736499;80;21558;-67
2022/10/08 10:21:47;;;;;;;1.65;1.40;;;;;;;21.12;57.21;100410.34;1737510;81;21762;-66
2022/10/08 10:24:33;;;;;;;;;;;;;;;21.25;55.65;100403.11;1733533;80;21637;-65
2022/10/08 10:27:11;;;;;;;1.57;1.10;;;;;;;21.34;49.97;100402.41;1736462;80;20472;-65
2022/10/08 10:29:49;;;;;;;3.77;2.05;;;;;;;21.32;55.42;100399.00;1729122;81;21521;-65
2022/10/08 10:32:25;;;;;;;4.22;1.40;;;;;;;21.36;55.66;100399.59;1739226;80;21501;-65
2022/10/08 10:35:00;;;;;;;4.37;1.40;;;;;;;21.46;54.80;100383.75;1741450;80;21622;-67
2022/10/08 10:37:34;;;;;;;1.80;1.42;;;;;;;21.46;54.80;100383.75;1744359;81;21399;-65
2022/10/08 10:40:28;;;;;;;3.00;1.47;;;;;;;21.60;54.97;100385.36;1736669;81;21108;-69
2022/10/08 10:43:32;;;;;;;1.22;0.90;;;;;;;21.67;54.71;100377.23;1738701;78;21573;-66
2022/10/08 10:46:13;;;;;;;2.98;1.15;;;;;;;21.73;54.79;100375.41;1734638;80;21456;-70
2022/10/08 10:48:39;;;;;;;2.50;1.30;;;;;;;21.83;53.43;100368.38;1732989;80;21909;-68
2022/10/08 10:51:23;;;;;;;1.95;1.07;;;;;;;21.89;52.92;100363.02;1734586;80;21160;-69
2022/10/08 10:54:14;;;;;;;3.27;1.10;;;;;;;21.90;52.16;100354.84;1743702;80;21535;-66
2022/10/08 10:56:49;;;;;;;1.65;0.95;;;;;;;21.97;51.32;100345.86;1711869;82;21161;-66
2022/10/08 10:59:46;;;;;;;2.75;1.35;;;;;;;22.10;50.85;100349.26;1683365;82;21573;-65
2022/10/08 11:02:26;;;;;;;2.35;1.40;;;;;;;22.10;50.85;100349.26;1691390;83;21907;-63
2022/10/08 11:05:20;;;;;;;1.52;1.02;;;;;;;22.12;50.37;100343.29;1699843;82;21554;-64
2022/10/08 11:08:18;;;;;;;2.98;1.10;;;;;;;22.14;49.80;100335.14;1682072;82;21534;-66
2022/10/08 11:11:07;;;;;;;1.77;1.10;;;;;;;22.14;49.80;100335.14;1685294;83;21510;-66
2022/10/08 11:13:49;;;;;;;2.12;1.12;;;;;;;22.19;49.79;100322.23;1702501;82;21557;-67
2022/10/08 11:16:52;;;;;;;2.12;1.20;;;;;;;22.19;49.79;100322.23;1678343;84;21837;-68
2022/10/08 11:19:28;;;;;;;2.80;1.27;;;;;;;22.35;48.87;100314.67;1695888;82;21482;-64
2022/10/08 11:22:33;;;;;;;1.98;1.05;;;;;;;22.45;47.86;100309.90;1703845;82;21081;-67
2022/10/08 11:25:42;;;;;;;2.37;1.00;;;;;;;22.48;47.44;100298.94;1660865;84;21554;-67
2022/10/08 11:28:46;;;;;;;4.03;1.20;;;;;;;22.51;47.33;100294.69;1675204;82;21543;-70
2022/10/08 11:31:39;;;;;;;2.22;1.40;;;;;;;22.69;46.83;100284.25;1684579;83;21802;-68
2022/10/08 11:34:26;;;;;;;1.60;1.32;;;;;;;22.69;46.83;100284.25;1678239;84;21082;-68
2022/10/08 11:37:10;;;;;;;1.65;1.20;;;;;;;22.73;46.24;100284.34;1673725;84;21025;-67
2022/10/08 11:40:04;;;;;;;1.95;1.35;;;;;;;22.78;45.82;100288.84;1693163;82;21589;-66
2022/10/08 11:42:45;;;;;;;2.42;1.80;;;;;;;22.90;45.46;100278.41;1704990;82;21001;-68
2022/10/08 11:45:26;;;;;;;2.30;1.65;;;;;;;22.90;45.46;100278.41;1693309;82;21780;-68
2022/10/08 11:47:54;;;;;;;2.12;1.40;;;;;;;22.96;43.91;100277.54;1701223;82;21492;-72
2022/10/08 11:50:30;;;;;;;3.15;1.17;;;;;;;23.02;43.62;100277.88;1705575;82;21518;-70